Time;durP1;ratioP1;P1;durP2;ratioP2;P2;SDS_P1;SDS_P2;PMS_P1;PMS_P2;Temp;Humidity;BMP_temperature;BMP_pressure;BME280_temperature;BME280_humidity;BME280_pressure;Samples;Min_cycle;Max_cycle;Signal;HPM_P1;HPM_P2
2023/01/11 00:01:52;;;;;;;1.50;1.40;;;;;;;6.19;nan;-23989.69;5032663;28;21101;-74
2023/01/11 00:04:19;;;;;;;1.37;1.27;;;;;;;6.11;nan;-23987.53;5032857;28;20218;-72
2023/01/11 00:06:45;;;;;;;1.50;1.40;;;;;;;6.11;nan;-23987.53;5043064;28;20214;-73
2023/01/11 00:09:11;;;;;;;1.40;1.30;;;;;;;6.02;nan;-23984.84;5052800;28;20641;-73
2023/01/11 00:11:36;;;;;;;1.67;1.53;;;;;;;5.78;nan;-23978.16;5052861;28;20646;-73
2023/01/11 00:14:02;;;;;;;1.60;1.50;;;;;;;6.19;nan;-23989.81;5031770;28;20214;-73
2023/01/11 00:16:29;;;;;;;2.07;1.87;;;;;;;6.09;nan;-23986.97;5036406;28;20548;-73
2023/01/11 00:18:55;;;;;;;1.40;1.30;;;;;;;6.11;nan;-23987.41;5037956;28;20329;-74
2023/01/11 00:21:21;;;;;;;1.10;1.10;;;;;;;6.17;nan;-23989.25;5032695;28;20187;-73
2023/01/11 00:23:48;;;;;;;1.83;1.60;;;;;;;5.83;nan;-23979.59;5032979;28;20199;-74
2023/01/11 00:26:14;;;;;;;1.67;1.57;;;;;;;6.28;nan;-23992.09;5033415;28;20186;-74
2023/01/11 00:28:40;;;;;;;1.50;1.40;;;;;;;6.17;nan;-23989.25;5033570;28;20634;-72
2023/01/11 00:31:06;;;;;;;1.50;1.40;;;;;;;5.89;nan;-23981.16;5031921;28;20186;-73
2023/01/11 00:33:31;;;;;;;1.40;1.30;;;;;;;5.73;nan;-23976.75;5032802;28;20637;-73
2023/01/11 00:35:56;;;;;;;1.70;1.60;;;;;;;6.16;nan;-23988.81;5033135;28;20676;-74
2023/01/11 00:49:20;;;;;;;1.50;1.40;;;;;;;5.72;nan;-23976.59;5031789;28;20275;-73
2023/01/11 00:51:45;;;;;;;1.50;1.40;;;;;;;6.11;nan;-23987.53;5032260;28;20270;-73
2023/01/11 00:54:11;;;;;;;1.53;1.43;;;;;;;6.16;nan;-23988.97;5032929;28;20187;-74
2023/01/11 00:56:36;;;;;;;4.10;1.80;;;;;;;5.82;nan;-23979.16;5032505;28;20290;-73
2023/01/11 00:59:03;;;;;;;3.83;2.13;;;;;;;5.83;nan;-23979.59;5032374;28;20630;-74
2023/01/11 01:01:29;;;;;;;1.40;1.30;;;;;;;6.23;nan;-23990.81;5032502;28;20233;-73
2023/01/11 01:03:55;;;;;;;1.77;1.40;;;;;;;6.01;nan;-23984.56;5032017;28;20585;-74
2023/01/11 01:06:20;;;;;;;1.40;1.30;;;;;;;6.07;nan;-23986.41;5032364;28;20168;-73
2023/01/11 01:08:46;;;;;;;1.27;1.20;;;;;;;6.11;nan;-23987.41;5032923;28;20195;-74
2023/01/11 01:11:12;;;;;;;1.53;1.43;;;;;;;5.97;nan;-23983.56;5031446;28;20240;-73
2023/01/11 01:16:21;;;;;;;1.50;1.40;;;;;;;6.28;nan;-23992.09;5032058;28;20218;-73
2023/01/11 01:18:47;;;;;;;1.03;1.03;;;;;;;5.95;nan;-23982.84;5029895;28;20637;-75
2023/01/11 01:21:12;;;;;;;1.27;1.27;;;;;;;6.28;nan;-23992.09;5032080;28;20207;-74
2023/01/11 01:23:38;;;;;;;0.90;0.90;;;;;;;6.11;nan;-23987.41;5030725;28;20191;-73
2023/01/11 01:26:05;;;;;;;1.17;1.10;;;;;;;6.18;nan;-23989.38;5032265;28;20171;-73
2023/01/11 01:28:31;;;;;;;1.37;1.30;;;;;;;6.24;nan;-23990.94;5031237;28;20189;-74
2023/01/11 01:30:57;;;;;;;1.40;1.30;;;;;;;6.13;nan;-23988.13;5031961;28;20597;-73
2023/01/11 01:33:23;;;;;;;1.20;1.10;;;;;;;6.33;nan;-23993.66;5031812;28;20182;-73
2023/01/11 01:35:48;;;;;;;1.20;1.20;;;;;;;6.38;nan;-23994.94;5031507;28;20265;-74
2023/01/11 01:38:14;;;;;;;1.20;1.20;;;;;;;6.09;nan;-23986.97;5031554;28;20638;-73
2023/01/11 01:40:45;;;;;;;1.47;1.37;;;;;;;5.91;nan;-23981.72;5031204;28;20668;-75
2023/01/11 01:43:12;;;;;;;1.37;1.30;;;;;;;6.03;nan;-23985.28;5030484;28;20677;-73
2023/01/11 01:45:38;;;;;;;1.07;1.07;;;;;;;6.10;nan;-23987.25;5032619;28;20167;-73
2023/01/11 01:48:05;;;;;;;1.13;1.13;;;;;;;6.18;nan;-23989.53;5030346;28;20560;-73
2023/01/11 01:50:48;;;;;;;1.93;1.53;;;;;;;5.92;nan;-23982.00;5030990;28;20178;-73
2023/01/11 01:53:30;;;;;;;1.70;1.60;;;;;;;6.26;nan;-23991.66;5031080;28;20175;-74
2023/01/11 01:55:59;;;;;;;1.37;1.17;;;;;;;5.77;nan;-23977.88;5032146;28;20179;-72
2023/01/11 01:58:31;;;;;;;1.50;1.40;;;;;;;6.09;nan;-23986.97;5030771;28;20167;-73
2023/01/11 02:01:45;;;;;;;1.13;1.10;;;;;;;6.09;nan;-23986.97;5032256;28;20174;-74
2023/01/11 02:03:42;;;;;;;1.47;1.37;;;;;;;6.11;nan;-23987.41;5031919;28;20747;-73
2023/01/11 02:06:08;;;;;;;1.30;1.20;;;;;;;5.98;nan;-23983.72;5030623;28;20180;-75
2023/01/11 02:08:39;;;;;;;1.20;1.20;;;;;;;5.97;nan;-23983.56;5031614;28;20700;-73
2023/01/11 02:11:28;;;;;;;2.70;1.20;;;;;;;5.98;nan;-23983.84;5032692;28;20176;-74
2023/01/11 02:13:53;;;;;;;1.40;1.30;;;;;;;5.72;nan;-23976.59;5043323;28;20184;-72
2023/01/11 02:16:18;;;;;;;1.10;1.10;;;;;;;5.97;nan;-23983.41;5038860;28;20182;-73
2023/01/11 02:18:45;;;;;;;1.53;1.43;;;;;;;6.13;nan;-23987.97;5031746;28;20199;-73
2023/01/11 02:21:19;;;;;;;1.50;1.40;;;;;;;6.15;nan;-23988.53;5031697;28;20174;-73
2023/01/11 02:24:02;;;;;;;1.60;1.50;;;;;;;6.02;nan;-23984.84;5031522;28;20218;-72
2023/01/11 02:26:31;;;;;;;1.50;1.40;;;;;;;6.11;nan;-23987.53;5032106;28;20172;-73
2023/01/11 02:29:03;;;;;;;2.00;1.50;;;;;;;6.12;nan;-23987.81;5032297;28;20181;-74
2023/01/11 02:31:32;;;;;;;1.50;1.40;;;;;;;5.66;nan;-23974.75;5034156;28;20168;-74
2023/01/11 02:34:18;;;;;;;1.10;1.10;;;;;;;6.15;nan;-23988.69;5035453;28;20175;-75
2023/01/11 02:37:10;;;;;;;1.30;1.20;;;;;;;6.06;nan;-23986.13;5032463;28;20589;-72
2023/01/11 02:39:49;;;;;;;1.13;1.13;;;;;;;6.03;nan;-23985.13;5029556;28;20180;-73
2023/01/11 02:45:16;;;;;;;1.20;1.20;;;;;;;6.08;nan;-23986.56;5034810;28;20680;-72
2023/01/11 02:47:54;;;;;;;1.40;1.30;;;;;;;5.98;nan;-23983.84;5035876;28;20603;-74
2023/01/11 02:50:46;;;;;;;1.30;1.20;;;;;;;6.10;nan;-23987.25;5034933;28;20163;-74
2023/01/11 02:53:37;;;;;;;2.93;1.30;;;;;;;6.06;nan;-23986.13;5035481;28;20203;-74
2023/01/11 02:56:09;;;;;;;1.17;1.13;;;;;;;5.95;nan;-23982.84;5033734;28;20643;-73
2023/01/11 02:58:39;;;;;;;1.27;1.17;;;;;;;5.64;nan;-23974.19;5034775;28;20229;-73
2023/01/11 03:01:05;;;;;;;1.20;1.20;;;;;;;6.02;nan;-23984.97;5035384;28;20167;-72
2023/01/11 03:03:32;;;;;;;1.57;1.47;;;;;;;5.69;nan;-23975.59;5034646;28;20239;-73
2023/01/11 03:06:11;;;;;;;1.20;1.20;;;;;;;5.81;nan;-23978.88;5035075;28;20187;-72
2023/01/11 03:08:46;;;;;;;1.30;1.20;;;;;;;6.09;nan;-23986.97;5034956;28;20182;-73
2023/01/11 03:12:50;;;;;;;1.20;1.20;;;;;;;6.12;nan;-23987.81;5034405;28;20226;-73
2023/01/11 03:14:43;;;;;;;1.53;1.30;;;;;;;6.27;nan;-23991.94;5033536;28;20172;-73
2023/01/11 03:17:30;;;;;;;1.50;1.40;;;;;;;6.20;nan;-23989.97;5033050;28;20198;-73
2023/01/11 03:20:20;;;;;;;1.10;1.10;;;;;;;5.91;nan;-23981.72;5034222;28;20259;-72
2023/01/11 03:23:15;;;;;;;1.27;1.27;;;;;;;6.32;nan;-23993.22;5014039;28;20575;-74
2023/01/11 03:26:09;;;;;;;1.43;1.33;;;;;;;6.22;nan;-23990.66;5014577;28;20180;-74
2023/01/11 03:28:34;;;;;;;1.17;1.17;;;;;;;6.42;nan;-23996.06;5014707;28;20651;-73
2023/01/11 03:31:36;;;;;;;1.00;1.00;;;;;;;6.39;nan;-23995.22;5019193;28;20171;-73
2023/01/11 03:34:25;;;;;;;1.33;1.27;;;;;;;6.34;nan;-23993.94;5024618;28;20213;-72
2023/01/11 03:37:18;;;;;;;1.07;1.07;;;;;;;6.37;nan;-23994.66;5033664;28;20172;-74
2023/01/11 03:39:56;;;;;;;1.17;1.17;;;;;;;6.29;nan;-23992.50;5010706;28;20188;-74
2023/01/11 03:42:24;;;;;;;1.10;1.10;;;;;;;6.25;nan;-23991.22;5012960;28;20192;-74
2023/01/11 03:44:53;;;;;;;1.33;1.23;;;;;;;6.20;nan;-23990.09;5014410;28;20168;-74
2023/01/11 03:47:22;;;;;;;1.40;1.30;;;;;;;6.01;nan;-23984.56;5014573;28;20164;-73
2023/01/11 03:49:52;;;;;;;1.23;1.23;;;;;;;5.80;nan;-23978.72;5030750;28;20240;-73
2023/01/11 03:52:21;;;;;;;1.20;1.20;;;;;;;5.92;nan;-23982.16;5034460;28;20217;-73
2023/01/11 03:54:48;;;;;;;1.10;1.10;;;;;;;5.98;nan;-23983.72;5033650;28;20210;-75
2023/01/11 03:57:24;;;;;;;3.03;1.20;;;;;;;5.89;nan;-23981.28;5032141;28;20281;-75
2023/01/11 03:59:50;;;;;;;1.20;1.10;;;;;;;6.04;nan;-23985.56;5033032;28;20159;-72
2023/01/11 04:02:24;;;;;;;1.40;1.30;;;;;;;5.63;nan;-23973.91;5032313;28;20648;-73
2023/01/11 04:04:50;;;;;;;1.10;1.07;;;;;;;5.81;nan;-23979.00;5032522;28;20265;-73
2023/01/11 04:07:17;;;;;;;1.27;1.17;;;;;;;5.71;nan;-23976.31;5033491;28;20669;-74
2023/01/11 04:09:43;;;;;;;1.33;1.27;;;;;;;5.57;nan;-23972.19;5033591;28;20179;-73
2023/01/11 04:12:09;;;;;;;1.07;1.07;;;;;;;5.83;nan;-23979.59;5026882;28;20182;-72
2023/01/11 04:14:34;;;;;;;1.60;1.50;;;;;;;5.63;nan;-23973.91;5027034;28;20590;-73
2023/01/11 04:17:00;;;;;;;1.30;1.23;;;;;;;5.38;nan;-23966.94;5027021;28;20214;-73
2023/01/11 04:19:25;;;;;;;1.23;1.23;;;;;;;5.41;nan;-23967.78;5026847;28;20208;-74
2023/01/11 04:21:50;;;;;;;1.60;1.50;;;;;;;5.40;nan;-23967.38;5024958;28;20183;-73
2023/01/11 04:24:17;;;;;;;1.60;1.50;;;;;;;5.30;nan;-23964.81;5026551;28;20217;-73
2023/01/11 04:26:43;;;;;;;1.73;1.30;;;;;;;5.62;nan;-23973.75;5026787;28;20218;-73
2023/01/11 04:29:09;;;;;;;1.60;1.50;;;;;;;5.59;nan;-23972.75;5026238;28;20176;-73
2023/01/11 04:31:34;;;;;;;1.13;1.13;;;;;;;5.33;nan;-23965.66;5025562;28;20202;-73
2023/01/11 04:34:00;;;;;;;1.30;1.20;;;;;;;5.49;nan;-23969.91;5027236;28;20666;-73
2023/01/11 04:36:27;;;;;;;1.33;1.30;;;;;;;5.48;nan;-23969.78;5025697;28;20179;-73
2023/01/11 04:38:53;;;;;;;1.20;1.20;;;;;;;5.27;nan;-23963.94;5026761;28;20175;-74
2023/01/11 04:44:02;;;;;;;1.40;1.30;;;;;;;5.06;nan;-23957.84;5044903;28;20213;-73
2023/01/11 04:46:28;;;;;;;1.50;1.40;;;;;;;5.33;nan;-23965.66;5031675;28;20175;-72
2023/01/11 04:48:55;;;;;;;1.20;1.20;;;;;;;5.15;nan;-23960.53;5024910;28;20171;-73
2023/01/11 04:51:20;;;;;;;1.50;1.40;;;;;;;5.61;nan;-23973.34;5026756;28;20627;-73
2023/01/11 04:53:48;;;;;;;1.17;1.17;;;;;;;5.34;nan;-23965.78;5025281;28;20233;-73
2023/01/11 04:56:14;;;;;;;2.10;1.70;;;;;;;5.52;nan;-23970.78;5025776;28;20186;-73
2023/01/11 04:58:39;;;;;;;1.87;1.40;;;;;;;5.49;nan;-23969.91;5026188;28;20183;-74
2023/01/11 05:01:14;;;;;;;1.90;1.77;;;;;;;5.58;nan;-23972.47;5026016;28;20209;-74
2023/01/11 05:03:40;;;;;;;1.67;1.57;;;;;;;5.59;nan;-23972.91;5025345;28;20221;-73
2023/01/11 05:06:06;;;;;;;1.47;1.37;;;;;;;5.49;nan;-23969.91;5026431;28;20187;-73
2023/01/11 05:08:32;;;;;;;1.57;1.47;;;;;;;5.04;nan;-23957.25;5025303;28;20607;-74
2023/01/11 05:11:03;;;;;;;1.40;1.30;;;;;;;5.23;nan;-23962.81;5025566;28;20560;-74
2023/01/11 05:13:41;;;;;;;1.50;1.40;;;;;;;5.20;nan;-23961.97;5025895;28;20175;-74
2023/01/11 05:16:07;;;;;;;1.90;1.80;;;;;;;5.51;nan;-23970.47;5025706;28;20190;-74
2023/01/11 05:18:32;;;;;;;1.40;1.30;;;;;;;5.25;nan;-23963.25;5026040;28;20176;-74
2023/01/11 05:20:58;;;;;;;1.50;1.40;;;;;;;5.20;nan;-23961.97;5026096;28;20210;-73
2023/01/11 05:23:23;;;;;;;1.70;1.60;;;;;;;5.46;nan;-23969.22;5032658;28;20214;-74
2023/01/11 05:25:49;;;;;;;1.50;1.40;;;;;;;5.35;nan;-23966.09;5033268;28;20270;-73
2023/01/11 05:28:14;;;;;;;1.40;1.30;;;;;;;5.13;nan;-23959.97;5030731;28;20183;-74
2023/01/11 05:30:39;;;;;;;1.67;1.57;;;;;;;5.58;nan;-23972.63;5031430;28;20210;-74
2023/01/11 05:33:05;;;;;;;1.53;1.43;;;;;;;5.45;nan;-23968.94;5031578;28;20186;-74
2023/01/11 05:35:30;;;;;;;1.40;1.30;;;;;;;5.41;nan;-23967.66;5032159;28;20696;-74
2023/01/11 05:37:55;;;;;;;1.80;1.70;;;;;;;5.39;nan;-23967.06;5031644;28;20168;-73
2023/01/11 05:40:21;;;;;;;1.90;1.53;;;;;;;5.44;nan;-23968.63;5030346;28;20186;-74
2023/01/11 05:42:46;;;;;;;1.70;1.60;;;;;;;5.30;nan;-23964.81;5031192;28;20704;-75
2023/01/11 05:45:34;;;;;;;1.50;1.40;;;;;;;5.43;nan;-23968.22;5031262;28;20179;-73
2023/01/11 05:48:00;;;;;;;1.40;1.30;;;;;;;4.83;nan;-23951.44;5031483;28;20270;-74
2023/01/11 05:50:25;;;;;;;1.47;1.37;;;;;;;5.20;nan;-23961.81;5030130;28;20270;-75
2023/01/11 05:52:51;;;;;;;1.43;1.33;;;;;;;5.11;nan;-23959.41;5031379;28;20645;-74
2023/01/11 05:55:16;;;;;;;1.60;1.50;;;;;;;5.03;nan;-23957.13;5031618;28;20680;-72
2023/01/11 05:57:42;;;;;;;1.77;1.67;;;;;;;5.06;nan;-23957.84;5031138;28;20183;-74
2023/01/11 06:00:11;;;;;;;1.97;1.73;;;;;;;4.59;nan;-23944.75;5031442;28;20179;-74
2023/01/11 06:02:37;;;;;;;1.67;1.57;;;;;;;4.96;nan;-23955.13;5031540;28;20682;-76
2023/01/11 06:05:03;;;;;;;2.27;1.67;;;;;;;4.42;nan;-23939.91;5031618;28;20197;-76
2023/01/11 06:07:28;;;;;;;3.23;1.67;;;;;;;4.89;nan;-23953.13;5035805;28;20175;-75
2023/01/11 06:09:54;;;;;;;1.43;1.33;;;;;;;4.92;nan;-23954.00;5035870;28;20183;-75
2023/01/11 06:12:19;;;;;;;1.70;1.50;;;;;;;4.89;nan;-23953.13;5034792;28;20183;-74
2023/01/11 06:14:44;;;;;;;1.70;1.60;;;;;;;4.49;nan;-23941.91;5034594;28;20186;-75
2023/01/11 06:17:10;;;;;;;2.20;1.80;;;;;;;4.86;nan;-23952.28;5035715;28;20610;-74
2023/01/11 06:19:35;;;;;;;2.10;1.60;;;;;;;4.50;nan;-23942.19;5033811;28;20210;-75
2023/01/11 06:22:01;;;;;;;1.53;1.43;;;;;;;4.61;nan;-23945.16;5035089;28;20635;-75
2023/01/11 06:24:26;;;;;;;1.90;1.73;;;;;;;4.77;nan;-23949.72;5035159;28;20199;-75
2023/01/11 06:26:52;;;;;;;1.70;1.60;;;;;;;4.95;nan;-23954.84;5034927;28;20606;-74
2023/01/11 06:29:18;;;;;;;2.47;1.70;;;;;;;4.72;nan;-23948.44;5035111;28;20179;-73
2023/01/11 06:31:43;;;;;;;1.83;1.70;;;;;;;5.10;nan;-23958.97;5033539;28;20263;-73
2023/01/11 06:34:09;;;;;;;1.87;1.77;;;;;;;4.73;nan;-23948.59;5032771;28;20195;-71
2023/01/11 06:36:34;;;;;;;2.27;1.83;;;;;;;5.16;nan;-23960.69;5034251;28;20205;-72
2023/01/11 06:38:59;;;;;;;1.73;1.57;;;;;;;5.09;nan;-23958.81;5042305;28;20183;-71
2023/01/11 06:41:27;;;;;;;2.30;1.97;;;;;;;5.08;nan;-23958.53;5054467;28;20189;-72
2023/01/11 06:43:53;;;;;;;3.77;1.80;;;;;;;5.26;nan;-23963.53;5054003;28;20276;-71
2023/01/11 06:46:19;;;;;;;3.17;2.13;;;;;;;5.19;nan;-23961.66;5052890;28;20621;-71
2023/01/11 06:48:44;;;;;;;2.03;1.87;;;;;;;5.03;nan;-23957.13;5053339;28;20652;-73
2023/01/11 06:51:11;;;;;;;3.07;2.13;;;;;;;4.77;nan;-23949.72;5053843;28;20253;-72
2023/01/11 06:53:36;;;;;;;3.87;2.23;;;;;;;4.76;nan;-23949.59;5044191;28;20552;-72
2023/01/11 06:56:02;;;;;;;2.90;2.57;;;;;;;5.11;nan;-23959.41;5033802;28;20190;-72
2023/01/11 06:58:27;;;;;;;4.20;2.23;;;;;;;4.88;nan;-23952.84;5033456;28;20172;-72
2023/01/11 07:00:55;;;;;;;4.40;2.37;;;;;;;5.15;nan;-23960.53;5033482;28;20685;-73
2023/01/11 07:03:25;;;;;;;3.27;2.43;;;;;;;5.38;nan;-23966.94;5034019;28;20230;-73
2023/01/11 07:05:57;;;;;;;2.67;2.23;;;;;;;5.09;nan;-23958.69;5033597;28;20167;-73
2023/01/11 07:08:24;;;;;;;2.20;2.00;;;;;;;5.49;nan;-23970.06;5034000;28;20262;-73
2023/01/11 07:10:50;;;;;;;2.37;1.90;;;;;;;5.58;nan;-23972.47;5036963;28;20167;-73
2023/01/11 07:13:16;;;;;;;2.43;2.07;;;;;;;5.57;nan;-23972.34;5042083;28;20171;-74
2023/01/11 07:15:42;;;;;;;3.63;2.27;;;;;;;5.67;nan;-23975.03;5033874;28;20264;-73
2023/01/11 07:18:08;;;;;;;2.47;2.20;;;;;;;5.48;nan;-23969.63;5032581;28;20238;-74
2023/01/11 07:20:33;;;;;;;2.60;2.30;;;;;;;5.43;nan;-23968.34;5031110;28;20215;-72
2023/01/11 07:23:00;;;;;;;2.50;1.83;;;;;;;5.19;nan;-23961.53;5032925;28;20217;-73
2023/01/11 07:25:29;;;;;;;2.40;2.20;;;;;;;5.61;nan;-23973.47;5033608;28;20218;-71
2023/01/11 07:27:56;;;;;;;2.37;1.90;;;;;;;5.48;nan;-23969.63;5034575;28;20172;-73
2023/01/11 07:30:22;;;;;;;3.00;2.53;;;;;;;5.47;nan;-23969.50;5034077;28;20556;-74
2023/01/11 07:32:47;;;;;;;4.67;2.73;;;;;;;5.17;nan;-23960.97;5034117;28;20175;-73
2023/01/11 07:35:13;;;;;;;2.60;2.40;;;;;;;5.52;nan;-23970.78;5034090;28;20625;-73
2023/01/11 07:37:40;;;;;;;3.23;2.27;;;;;;;5.18;nan;-23961.38;5032924;28;20191;-73
2023/01/11 07:40:06;;;;;;;2.87;2.33;;;;;;;5.75;nan;-23977.44;5031857;28;20638;-74
2023/01/11 07:45:16;;;;;;;2.53;2.07;;;;;;;5.68;nan;-23975.31;5033407;28;20614;-71
2023/01/11 07:47:41;;;;;;;3.07;2.50;;;;;;;5.69;nan;-23975.75;5033354;28;20264;-72
2023/01/11 07:50:07;;;;;;;3.53;2.40;;;;;;;6.09;nan;-23986.97;5033489;28;20185;-73
2023/01/11 07:52:32;;;;;;;2.20;2.00;;;;;;;5.83;nan;-23979.44;5033095;28;20296;-73
2023/01/11 07:55:01;;;;;;;2.83;2.30;;;;;;;6.45;nan;-23996.91;5033156;28;20172;-73
2023/01/11 07:57:29;;;;;;;2.50;2.10;;;;;;;6.53;nan;-23999.19;5032996;28;20534;-72
2023/01/11 07:59:55;;;;;;;4.17;2.83;;;;;;;7.05;nan;-24013.81;5032527;28;20175;-73
2023/01/11 08:02:20;;;;;;;5.80;3.00;;;;;;;7.55;nan;-24027.97;5029560;28;20234;-73
2023/01/11 08:04:45;;;;;;;12.00;2.03;;;;;;;7.98;nan;-24040.03;5013555;28;20188;-73
2023/01/11 08:07:11;;;;;;;5.83;2.80;;;;;;;8.11;nan;-24043.41;5013185;28;20702;-74
2023/01/11 08:09:36;;;;;;;3.23;2.40;;;;;;;8.06;nan;-24042.16;5012760;28;20184;-72
2023/01/11 08:14:45;;;;;;;3.70;2.33;;;;;;;8.13;nan;-24044.00;5013145;28;20669;-74
2023/01/11 08:17:15;;;;;;;4.13;2.10;;;;;;;8.17;nan;-24045.13;5013189;28;20176;-74
2023/01/11 08:19:41;;;;;;;1.97;1.70;;;;;;;7.96;nan;-24039.31;5013554;28;20235;-73
2023/01/11 08:22:07;;;;;;;2.43;1.80;;;;;;;7.81;nan;-24035.06;5012686;28;20172;-74
2023/01/11 08:24:35;;;;;;;2.30;1.90;;;;;;;7.83;nan;-24035.63;5013032;28;20211;-73
2023/01/11 08:27:02;;;;;;;1.70;1.60;;;;;;;8.08;nan;-24042.72;5013351;28;20160;-74
2023/01/11 08:29:27;;;;;;;2.57;1.70;;;;;;;8.03;nan;-24041.28;5012624;28;20263;-74
2023/01/11 08:31:53;;;;;;;2.07;1.80;;;;;;;8.03;nan;-24041.16;5013287;28;20623;-73
2023/01/11 08:34:18;;;;;;;1.50;1.40;;;;;;;7.97;nan;-24039.72;5012938;28;20176;-73
2023/01/11 08:36:44;;;;;;;1.60;1.50;;;;;;;8.08;nan;-24042.56;5012668;28;20631;-74
2023/01/11 08:39:09;;;;;;;2.80;1.87;;;;;;;7.70;nan;-24032.09;5012405;28;20168;-74
2023/01/11 08:41:35;;;;;;;1.50;1.40;;;;;;;8.06;nan;-24042.00;5012645;28;20168;-74
2023/01/11 08:44:00;;;;;;;3.13;1.30;;;;;;;7.46;nan;-24025.44;5012381;28;20622;-73
2023/01/11 08:46:26;;;;;;;2.33;1.70;;;;;;;7.62;nan;-24029.69;5012495;28;20196;-74
2023/01/11 08:48:54;;;;;;;1.80;1.70;;;;;;;7.83;nan;-24035.78;5012923;28;20175;-73
2023/01/11 08:51:20;;;;;;;2.50;1.70;;;;;;;7.95;nan;-24039.16;5012100;28;20160;-74
2023/01/11 08:53:46;;;;;;;1.53;1.43;;;;;;;7.91;nan;-24037.88;5012191;28;20215;-73
2023/01/11 08:56:12;;;;;;;1.73;1.63;;;;;;;7.63;nan;-24029.97;5012623;28;20240;-73
2023/01/11 08:58:37;;;;;;;2.83;1.90;;;;;;;7.70;nan;-24031.94;5012132;28;20173;-73
2023/01/11 09:01:06;;;;;;;2.47;2.10;;;;;;;7.89;nan;-24037.47;5012583;28;20160;-76
2023/01/11 09:03:33;;;;;;;1.60;1.50;;;;;;;8.13;nan;-24044.00;5031787;28;20230;-72
2023/01/11 09:05:58;;;;;;;2.92;1.60;;;;;;;8.31;nan;-24049.22;5031669;28;20259;-72
2023/01/11 09:08:25;;;;;;;1.80;1.50;;;;;;;8.34;nan;-24050.06;5032224;28;20176;-72
2023/01/11 09:10:51;;;;;;;3.93;1.90;;;;;;;8.62;nan;-24057.88;5032031;28;20707;-72
2023/01/11 09:13:16;;;;;;;1.60;1.50;;;;;;;8.64;nan;-24058.28;5031880;28;20218;-73
2023/01/11 09:15:45;;;;;;;2.20;2.00;;;;;;;8.41;nan;-24051.91;5032091;28;20163;-73
2023/01/11 09:18:11;;;;;;;1.50;1.40;;;;;;;8.52;nan;-24055.03;5032433;28;20171;-72
2023/01/11 09:20:36;;;;;;;1.37;1.27;;;;;;;8.79;nan;-24062.53;5031577;28;20175;-73
2023/01/11 09:23:02;;;;;;;2.75;1.50;;;;;;;8.80;nan;-24062.81;5032222;28;20191;-73
2023/01/11 09:25:27;;;;;;;1.70;1.60;;;;;;;8.29;nan;-24048.66;5032115;28;20172;-73
2023/01/11 09:27:52;;;;;;;1.80;1.48;;;;;;;8.36;nan;-24050.50;5031770;28;20229;-73
2023/01/11 09:30:21;;;;;;;2.50;1.50;;;;;;;8.15;nan;-24044.56;5032196;28;20669;-76
2023/01/11 09:32:47;;;;;;;1.60;1.48;;;;;;;8.52;nan;-24055.03;5031440;28;20650;-73
2023/01/11 09:35:16;;;;;;;1.60;1.50;;;;;;;8.75;nan;-24061.41;5031706;28;20172;-73
2023/01/11 09:37:50;;;;;;;1.60;1.50;;;;;;;9.17;nan;-24073.13;5031676;28;20172;-73
2023/01/11 09:40:29;;;;;;;1.67;1.58;;;;;;;8.78;nan;-24062.25;5030999;28;20557;-72
2023/01/11 09:42:59;;;;;;;1.50;1.40;;;;;;;9.04;nan;-24069.59;5031422;28;20202;-72
2023/01/11 09:45:28;;;;;;;1.48;1.38;;;;;;;9.12;nan;-24071.88;5035385;28;20202;-72
2023/01/11 09:48:10;;;;;;;2.30;1.63;;;;;;;9.26;nan;-24075.69;5035783;28;20611;-72
2023/01/11 09:50:40;;;;;;;1.70;1.60;;;;;;;9.41;nan;-24079.78;5031965;28;20171;-72
2023/01/11 09:53:12;;;;;;;3.17;1.50;;;;;;;9.09;nan;-24071.03;5031568;28;20619;-74
2023/01/11 09:55:46;;;;;;;1.75;1.65;;;;;;;9.33;nan;-24077.66;5031565;28;20254;-74
2023/01/11 09:58:13;;;;;;;6.97;1.90;;;;;;;9.34;nan;-24077.81;5031666;28;20558;-74
2023/01/11 10:01:17;;;;;;;1.65;1.55;;;;;;;9.32;nan;-24077.53;5031670;28;20171;-74
2023/01/11 10:03:51;;;;;;;2.20;2.03;;;;;;;9.44;nan;-24080.63;5031603;28;20293;-74
2023/01/11 10:06:41;;;;;;;2.65;2.30;;;;;;;9.03;nan;-24069.31;5031128;28;20175;-73
2023/01/11 10:09:21;;;;;;;4.50;2.58;;;;;;;9.25;nan;-24075.41;5031734;28;20167;-73
2023/01/11 10:12:18;;;;;;;3.13;2.10;;;;;;;9.22;nan;-24074.69;5031331;28;20203;-73
2023/01/11 10:14:58;;;;;;;3.13;2.22;;;;;;;9.42;nan;-24080.22;5031328;28;20156;-72
2023/01/11 10:17:27;;;;;;;3.53;2.28;;;;;;;9.18;nan;-24073.41;5031650;28;20680;-73
2023/01/11 10:20:00;;;;;;;1.77;1.67;;;;;;;9.20;nan;-24074.00;5030315;28;20206;-74
2023/01/11 10:22:38;;;;;;;1.92;1.70;;;;;;;9.12;nan;-24071.72;5030918;28;20164;-73
2023/01/11 10:25:18;;;;;;;2.10;1.80;;;;;;;9.34;nan;-24077.81;5030884;28;20163;-73
2023/01/11 10:28:00;;;;;;;9.48;1.85;;;;;;;9.24;nan;-24075.13;5041712;28;20225;-73
2023/01/11 10:33:44;;;;;;;2.53;1.70;;;;;;;9.36;nan;-24078.38;5050017;28;20178;-72
2023/01/11 10:36:38;;;;;;;2.45;1.90;;;;;;;9.47;nan;-24081.63;5050365;28;20205;-73
2023/01/11 10:42:11;;;;;;;2.20;1.88;;;;;;;9.37;nan;-24078.78;5050459;28;20264;-74
2023/01/11 10:44:59;;;;;;;5.25;2.00;;;;;;;9.15;nan;-24072.56;5037085;28;20196;-72
2023/01/11 10:47:32;;;;;;;3.22;2.10;;;;;;;9.56;nan;-24084.03;5030322;28;20604;-74
2023/01/11 10:50:12;;;;;;;3.85;2.10;;;;;;;10.02;nan;-24096.88;5030243;28;20197;-72
2023/01/11 10:52:46;;;;;;;1.70;1.60;;;;;;;10.01;nan;-24096.59;5032768;28;20179;-73
2023/01/11 10:55:23;;;;;;;2.47;1.98;;;;;;;10.30;nan;-24104.66;5033868;28;20255;-74
2023/01/11 10:58:10;;;;;;;1.55;1.45;;;;;;;10.55;nan;-24111.69;5033617;28;20644;-73
2023/01/11 11:00:50;;;;;;;1.70;1.45;;;;;;;10.52;nan;-24111.00;5033666;28;20175;-73
2023/01/11 11:03:43;;;;;;;2.70;1.92;;;;;;;10.71;nan;-24116.22;5033278;28;20223;-73
2023/01/11 11:06:34;;;;;;;5.78;2.30;;;;;;;10.74;nan;-24116.91;5033532;28;20163;-72
2023/01/11 11:09:31;;;;;;;1.90;1.67;;;;;;;10.41;nan;-24107.75;5030406;28;20298;-75
2023/01/11 11:12:04;;;;;;;1.92;1.65;;;;;;;10.63;nan;-24114.09;5033366;28;20172;-75
2023/01/11 11:14:34;;;;;;;2.28;1.65;;;;;;;10.40;nan;-24107.63;5033803;28;20622;-75
2023/01/11 11:17:22;;;;;;;2.85;1.90;;;;;;;10.87;nan;-24120.59;5033212;28;20175;-75
2023/01/11 11:19:48;;;;;;;2.05;1.60;;;;;;;10.26;nan;-24103.66;5034012;28;20172;-74
2023/01/11 11:22:13;;;;;;;1.65;1.50;;;;;;;10.31;nan;-24105.06;5032075;28;20182;-74
2023/01/11 11:24:48;;;;;;;2.03;1.65;;;;;;;9.95;nan;-24094.91;5032447;28;20292;-75
2023/01/11 11:27:43;;;;;;;1.83;1.73;;;;;;;10.19;nan;-24101.69;5032398;28;20633;-74
2023/01/11 11:30:10;;;;;;;1.73;1.63;;;;;;;10.29;nan;-24104.38;5032864;28;20270;-75
2023/01/11 11:32:40;;;;;;;1.63;1.52;;;;;;;10.11;nan;-24099.56;5033150;28;20199;-75
2023/01/11 11:35:13;;;;;;;1.65;1.55;;;;;;;10.22;nan;-24102.53;5032509;28;20178;-74
2023/01/11 11:37:43;;;;;;;1.58;1.48;;;;;;;10.25;nan;-24103.22;5033275;28;20175;-74
2023/01/11 11:40:36;;;;;;;1.83;1.73;;;;;;;10.07;nan;-24098.44;5033262;28;20266;-75
2023/01/11 11:43:22;;;;;;;1.48;1.38;;;;;;;10.01;nan;-24096.72;5031628;28;20268;-74
2023/01/11 11:45:54;;;;;;;2.33;1.45;;;;;;;9.93;nan;-24094.34;5032622;28;20551;-75
2023/01/11 11:48:20;;;;;;;2.72;1.80;;;;;;;9.58;nan;-24084.72;5032817;28;20589;-74
2023/01/11 11:50:47;;;;;;;1.70;1.60;;;;;;;9.26;nan;-24075.69;5032773;28;20241;-74
2023/01/11 11:53:54;;;;;;;2.85;1.90;;;;;;;10.24;nan;-24103.09;5033164;28;20526;-74
2023/01/11 11:56:40;;;;;;;1.70;1.60;;;;;;;10.21;nan;-24102.09;5032874;28;20191;-74
2023/01/11 11:59:14;;;;;;;1.50;1.40;;;;;;;10.46;nan;-24109.31;5032600;28;20182;-75
2023/01/11 12:01:45;;;;;;;1.35;1.25;;;;;;;10.79;nan;-24118.34;5032740;28;20302;-76
2023/01/11 12:04:19;;;;;;;2.63;1.70;;;;;;;10.36;nan;-24106.47;5031985;28;20693;-75
2023/01/11 12:07:13;;;;;;;2.90;1.80;;;;;;;10.51;nan;-24110.72;5032661;28;20163;-74
2023/01/11 12:09:46;;;;;;;1.50;1.40;;;;;;;10.43;nan;-24108.47;5031107;28;20206;-71
2023/01/11 12:12:20;;;;;;;1.50;1.40;;;;;;;10.24;nan;-24103.09;5032955;28;20178;-74
2023/01/11 12:15:07;;;;;;;1.85;1.60;;;;;;;10.33;nan;-24105.63;5032645;28;20162;-72
2023/01/11 12:17:34;;;;;;;2.05;1.63;;;;;;;10.11;nan;-24099.41;5032266;28;20183;-74
2023/01/11 12:19:59;;;;;;;2.80;1.88;;;;;;;10.28;nan;-24104.22;5034518;28;20164;-74
2023/01/11 12:22:27;;;;;;;2.45;1.60;;;;;;;10.25;nan;-24103.38;5034137;28;20566;-74
2023/01/11 12:25:14;;;;;;;2.67;1.83;;;;;;;10.36;nan;-24106.47;5032413;28;20191;-74
2023/01/11 12:28:07;;;;;;;2.13;1.50;;;;;;;10.21;nan;-24102.25;5030624;28;20231;-74
2023/01/11 12:30:44;;;;;;;3.35;1.50;;;;;;;9.76;nan;-24089.66;5031971;28;20708;-75
2023/01/11 12:33:24;;;;;;;1.63;1.52;;;;;;;9.59;nan;-24085.00;5020476;28;20717;-75
2023/01/11 12:36:02;;;;;;;2.95;1.90;;;;;;;9.94;nan;-24094.75;5031841;28;20464;-75
2023/01/11 12:38:51;;;;;;;2.22;2.03;;;;;;;9.91;nan;-24093.78;5031799;28;20709;-74